sensor_id;sensor_type;location;lat;lon;timestamp;pressure;altitude;pressure_sealevel;temperature;humidity
69524;BME280;56723;42.694;23.286;2022-08-27T00:00:46;94707.25;;;18.00;69.41
69524;BME280;56723;42.694;23.286;2022-08-27T00:03:14;94715.50;;;18.04;68.94
69524;BME280;56723;42.694;23.286;2022-08-27T00:05:41;94711.03;;;18.04;69.13
69524;BME280;56723;42.694;23.286;2022-08-27T00:08:10;94711.56;;;17.94;70.68
69524;BME280;56723;42.694;23.286;2022-08-27T00:10:39;94700.97;;;17.83;70.01
69524;BME280;56723;42.694;23.286;2022-08-27T00:13:07;94704.63;;;17.82;71.19
69524;BME280;56723;42.694;23.286;2022-08-27T00:15:34;94693.44;;;17.75;68.85
69524;BME280;56723;42.694;23.286;2022-08-27T00:18:01;94697.50;;;17.71;67.37
69524;BME280;56723;42.694;23.286;2022-08-27T00:20:28;94693.69;;;17.67;67.06
69524;BME280;56723;42.694;23.286;2022-08-27T00:22:55;94703.75;;;17.70;67.25
69524;BME280;56723;42.694;23.286;2022-08-27T00:25:23;94699.53;;;17.69;67.96
69524;BME280;56723;42.694;23.286;2022-08-27T00:27:50;94695.88;;;17.70;67.09
69524;BME280;56723;42.694;23.286;2022-08-27T00:30:19;94691.81;;;17.74;66.81
69524;BME280;56723;42.694;23.286;2022-08-27T00:32:47;94695.03;;;17.76;69.77
69524;BME280;56723;42.694;23.286;2022-08-27T00:35:15;94690.28;;;17.66;70.48
69524;BME280;56723;42.694;23.286;2022-08-27T00:37:43;94693.53;;;17.61;69.35
69524;BME280;56723;42.694;23.286;2022-08-27T00:40:15;94698.34;;;17.64;70.03
69524;BME280;56723;42.694;23.286;2022-08-27T00:42:43;94699.63;;;17.55;70.58
69524;BME280;56723;42.694;23.286;2022-08-27T00:45:17;94692.03;;;17.47;71.22
69524;BME280;56723;42.694;23.286;2022-08-27T00:47:48;94692.94;;;17.35;70.89
69524;BME280;56723;42.694;23.286;2022-08-27T00:50:22;94701.88;;;17.27;70.98
69524;BME280;56723;42.694;23.286;2022-08-27T00:52:57;94700.25;;;17.26;69.58
69524;BME280;56723;42.694;23.286;2022-08-27T00:58:32;94697.09;;;17.24;71.99
69524;BME280;56723;42.694;23.286;2022-08-27T01:01:00;94693.69;;;17.17;71.45
69524;BME280;56723;42.694;23.286;2022-08-27T01:03:27;94692.09;;;17.16;71.70
69524;BME280;56723;42.694;23.286;2022-08-27T01:05:56;94685.84;;;17.17;72.03
69524;BME280;56723;42.694;23.286;2022-08-27T01:08:26;94698.69;;;17.25;72.08
69524;BME280;56723;42.694;23.286;2022-08-27T01:10:55;94696.91;;;17.19;72.50
69524;BME280;56723;42.694;23.286;2022-08-27T01:13:26;94691.47;;;17.20;71.46
69524;BME280;56723;42.694;23.286;2022-08-27T01:16:18;94692.41;;;17.26;71.19
69524;BME280;56723;42.694;23.286;2022-08-27T01:18:48;94691.84;;;17.24;72.26
69524;BME280;56723;42.694;23.286;2022-08-27T01:23:56;94689.47;;;17.16;73.25
69524;BME280;56723;42.694;23.286;2022-08-27T01:26:28;94688.69;;;17.15;73.31
69524;BME280;56723;42.694;23.286;2022-08-27T01:28:56;94698.19;;;17.10;73.75
69524;BME280;56723;42.694;23.286;2022-08-27T01:31:24;94692.03;;;16.98;74.37
69524;BME280;56723;42.694;23.286;2022-08-27T01:33:59;94689.16;;;17.06;74.37
69524;BME280;56723;42.694;23.286;2022-08-27T01:36:27;94687.28;;;17.13;74.45
69524;BME280;56723;42.694;23.286;2022-08-27T01:38:54;94689.91;;;17.13;73.99
69524;BME280;56723;42.694;23.286;2022-08-27T01:41:23;94694.41;;;17.06;74.73
69524;BME280;56723;42.694;23.286;2022-08-27T01:43:51;94696.47;;;16.97;74.96
69524;BME280;56723;42.694;23.286;2022-08-27T01:46:22;94700.13;;;16.89;76.08
69524;BME280;56723;42.694;23.286;2022-08-27T01:48:49;94696.97;;;16.81;75.99
69524;BME280;56723;42.694;23.286;2022-08-27T01:51:16;94704.31;;;16.66;75.83
69524;BME280;56723;42.694;23.286;2022-08-27T01:53:44;94705.53;;;16.56;76.66
69524;BME280;56723;42.694;23.286;2022-08-27T01:56:11;94698.31;;;16.52;76.79
69524;BME280;56723;42.694;23.286;2022-08-27T01:58:38;94705.59;;;16.50;76.67
69524;BME280;56723;42.694;23.286;2022-08-27T02:01:09;94712.41;;;16.51;77.75
69524;BME280;56723;42.694;23.286;2022-08-27T02:03:39;94707.94;;;16.58;76.33
69524;BME280;56723;42.694;23.286;2022-08-27T02:06:08;94702.28;;;16.61;75.44
69524;BME280;56723;42.694;23.286;2022-08-27T02:08:35;94710.94;;;16.68;74.52
69524;BME280;56723;42.694;23.286;2022-08-27T02:11:03;94705.94;;;16.67;74.44
69524;BME280;56723;42.694;23.286;2022-08-27T02:13:30;94705.13;;;16.66;74.47
69524;BME280;56723;42.694;23.286;2022-08-27T02:15:57;94713.97;;;16.58;74.29
69524;BME280;56723;42.694;23.286;2022-08-27T02:18:24;94707.97;;;16.51;75.74
69524;BME280;56723;42.694;23.286;2022-08-27T02:20:51;94707.59;;;16.48;75.36
69524;BME280;56723;42.694;23.286;2022-08-27T02:23:18;94710.63;;;16.45;75.78
69524;BME280;56723;42.694;23.286;2022-08-27T02:25:45;94707.84;;;16.40;76.53
69524;BME280;56723;42.694;23.286;2022-08-27T02:28:13;94709.22;;;16.42;76.14
69524;BME280;56723;42.694;23.286;2022-08-27T02:30:40;94702.78;;;16.45;75.70
69524;BME280;56723;42.694;23.286;2022-08-27T02:33:07;94701.56;;;16.47;76.14
69524;BME280;56723;42.694;23.286;2022-08-27T02:35:37;94712.06;;;16.41;74.77
69524;BME280;56723;42.694;23.286;2022-08-27T02:38:11;94716.88;;;16.37;74.99
69524;BME280;56723;42.694;23.286;2022-08-27T02:40:38;94717.69;;;16.38;75.33
69524;BME280;56723;42.694;23.286;2022-08-27T02:43:06;94722.97;;;16.24;75.64
69524;BME280;56723;42.694;23.286;2022-08-27T02:45:34;94727.81;;;16.14;76.75
69524;BME280;56723;42.694;23.286;2022-08-27T02:48:04;94722.22;;;16.11;76.83
69524;BME280;56723;42.694;23.286;2022-08-27T02:50:31;94724.25;;;16.09;76.28
69524;BME280;56723;42.694;23.286;2022-08-27T02:52:59;94721.09;;;15.93;76.47
69524;BME280;56723;42.694;23.286;2022-08-27T02:55:28;94725.72;;;15.78;76.89
69524;BME280;56723;42.694;23.286;2022-08-27T02:57:55;94724.53;;;15.68;77.60
69524;BME280;56723;42.694;23.286;2022-08-27T03:00:23;94731.56;;;15.74;77.88
69524;BME280;56723;42.694;23.286;2022-08-27T03:02:51;94728.31;;;15.78;78.20
69524;BME280;56723;42.694;23.286;2022-08-27T03:05:18;94724.91;;;15.78;77.06
69524;BME280;56723;42.694;23.286;2022-08-27T03:07:45;94733.97;;;15.75;77.40
69524;BME280;56723;42.694;23.286;2022-08-27T03:10:13;94738.00;;;15.71;79.26
69524;BME280;56723;42.694;23.286;2022-08-27T03:12:41;94732.78;;;15.65;78.58
69524;BME280;56723;42.694;23.286;2022-08-27T03:15:13;94738.03;;;15.58;78.80
69524;BME280;56723;42.694;23.286;2022-08-27T03:17:41;94738.41;;;15.62;80.26
69524;BME280;56723;42.694;23.286;2022-08-27T03:20:28;94740.00;;;15.69;79.37
69524;BME280;56723;42.694;23.286;2022-08-27T03:22:55;94739.22;;;15.69;79.58
69524;BME280;56723;42.694;23.286;2022-08-27T03:25:22;94736.38;;;15.64;79.32
69524;BME280;56723;42.694;23.286;2022-08-27T03:27:49;94734.00;;;15.55;78.29
69524;BME280;56723;42.694;23.286;2022-08-27T03:30:19;94746.06;;;15.56;79.56
69524;BME280;56723;42.694;23.286;2022-08-27T03:32:46;94745.44;;;15.68;79.33
69524;BME280;56723;42.694;23.286;2022-08-27T03:35:14;94752.88;;;15.71;80.01
69524;BME280;56723;42.694;23.286;2022-08-27T03:37:41;94755.47;;;15.71;80.74
69524;BME280;56723;42.694;23.286;2022-08-27T03:40:09;94755.28;;;15.72;80.63
69524;BME280;56723;42.694;23.286;2022-08-27T03:42:39;94756.09;;;15.73;80.32
69524;BME280;56723;42.694;23.286;2022-08-27T03:45:07;94753.44;;;15.86;80.07
69524;BME280;56723;42.694;23.286;2022-08-27T03:47:35;94750.78;;;15.99;78.37
69524;BME280;56723;42.694;23.286;2022-08-27T03:50:04;94751.19;;;16.03;78.33
69524;BME280;56723;42.694;23.286;2022-08-27T03:52:32;94754.84;;;15.95;78.52
69524;BME280;56723;42.694;23.286;2022-08-27T03:54:59;94760.88;;;15.96;78.49
69524;BME280;56723;42.694;23.286;2022-08-27T03:57:27;94755.66;;;15.96;79.16
69524;BME280;56723;42.694;23.286;2022-08-27T03:59:54;94751.19;;;16.03;78.68
69524;BME280;56723;42.694;23.286;2022-08-27T04:02:22;94764.84;;;16.11;78.33
69524;BME280;56723;42.694;23.286;2022-08-27T04:04:49;94760.03;;;16.08;78.83
69524;BME280;56723;42.694;23.286;2022-08-27T04:07:16;94766.03;;;16.15;78.34
69524;BME280;56723;42.694;23.286;2022-08-27T04:09:43;94764.81;;;16.24;78.50
69524;BME280;56723;42.694;23.286;2022-08-27T04:12:10;94763.56;;;16.34;77.78
69524;BME280;56723;42.694;23.286;2022-08-27T04:14:37;94761.41;;;16.24;77.47
69524;BME280;56723;42.694;23.286;2022-08-27T04:17:04;94766.28;;;16.07;78.48
69524;BME280;56723;42.694;23.286;2022-08-27T04:19:32;94774.16;;;15.94;79.24
69524;BME280;56723;42.694;23.286;2022-08-27T04:22:01;94768.72;;;15.89;80.10
69524;BME280;56723;42.694;23.286;2022-08-27T04:24:29;94776.97;;;15.92;81.01
69524;BME280;56723;42.694;23.286;2022-08-27T04:26:58;94784.00;;;15.85;80.88
69524;BME280;56723;42.694;23.286;2022-08-27T04:29:26;94780.19;;;15.75;81.54
69524;BME280;56723;42.694;23.286;2022-08-27T04:31:53;94757.69;;;15.61;82.72
69524;BME280;56723;42.694;23.286;2022-08-27T04:34:20;94786.03;;;15.77;83.25
69524;BME280;56723;42.694;23.286;2022-08-27T04:36:47;94784.78;;;15.99;81.46
69524;BME280;56723;42.694;23.286;2022-08-27T04:39:16;94770.84;;;16.18;80.40
69524;BME280;56723;42.694;23.286;2022-08-27T04:41:42;94773.19;;;16.40;79.30
69524;BME280;56723;42.694;23.286;2022-08-27T04:44:10;94777.94;;;16.62;78.02
69524;BME280;56723;42.694;23.286;2022-08-27T04:46:39;94775.50;;;16.74;77.23
69524;BME280;56723;42.694;23.286;2022-08-27T04:49:11;94780.09;;;16.85;76.36
69524;BME280;56723;42.694;23.286;2022-08-27T04:51:40;94772.16;;;16.99;76.59
69524;BME280;56723;42.694;23.286;2022-08-27T04:54:09;94775.31;;;17.07;75.22
69524;BME280;56723;42.694;23.286;2022-08-27T04:56:36;94780.53;;;17.14;74.74
69524;BME280;56723;42.694;23.286;2022-08-27T04:59:06;94783.94;;;17.14;74.84
69524;BME280;56723;42.694;23.286;2022-08-27T05:01:35;94793.81;;;17.12;74.17
69524;BME280;56723;42.694;23.286;2022-08-27T05:04:04;94780.69;;;17.19;74.30
69524;BME280;56723;42.694;23.286;2022-08-27T05:06:32;94791.50;;;17.29;74.62
69524;BME280;56723;42.694;23.286;2022-08-27T05:08:59;94789.53;;;17.24;73.60
69524;BME280;56723;42.694;23.286;2022-08-27T05:11:27;94795.78;;;17.23;73.26
69524;BME280;56723;42.694;23.286;2022-08-27T05:13:57;94782.13;;;17.15;74.33
69524;BME280;56723;42.694;23.286;2022-08-27T05:16:25;94793.78;;;17.19;74.08
69524;BME280;56723;42.694;23.286;2022-08-27T05:18:52;94792.88;;;17.31;73.88
69524;BME280;56723;42.694;23.286;2022-08-27T05:21:22;94790.25;;;17.38;73.59
69524;BME280;56723;42.694;23.286;2022-08-27T05:23:50;94794.88;;;17.36;73.37
69524;BME280;56723;42.694;23.286;2022-08-27T05:26:18;94793.84;;;17.44;72.93
69524;BME280;56723;42.694;23.286;2022-08-27T05:28:45;94797.56;;;17.54;71.80
69524;BME280;56723;42.694;23.286;2022-08-27T05:31:13;94796.72;;;17.60;70.52
69524;BME280;56723;42.694;23.286;2022-08-27T05:33:41;94799.56;;;17.59;70.05
69524;BME280;56723;42.694;23.286;2022-08-27T05:36:15;94800.56;;;17.58;69.86
69524;BME280;56723;42.694;23.286;2022-08-27T05:38:43;94795.47;;;17.63;70.87
69524;BME280;56723;42.694;23.286;2022-08-27T05:41:15;94789.38;;;17.76;68.93
69524;BME280;56723;42.694;23.286;2022-08-27T05:43:44;94796.91;;;17.90;68.90
69524;BME280;56723;42.694;23.286;2022-08-27T05:46:17;94794.72;;;18.06;68.39
69524;BME280;56723;42.694;23.286;2022-08-27T05:48:47;94787.09;;;18.04;66.49
69524;BME280;56723;42.694;23.286;2022-08-27T05:51:21;94797.94;;;18.08;67.40
69524;BME280;56723;42.694;23.286;2022-08-27T05:53:57;94803.13;;;18.14;67.46
69524;BME280;56723;42.694;23.286;2022-08-27T05:56:26;94809.47;;;18.25;66.35
69524;BME280;56723;42.694;23.286;2022-08-27T05:58:54;94808.88;;;18.23;65.65
69524;BME280;56723;42.694;23.286;2022-08-27T06:01:47;94801.09;;;18.16;65.05
69524;BME280;56723;42.694;23.286;2022-08-27T06:04:15;94808.88;;;18.23;66.34
69524;BME280;56723;42.694;23.286;2022-08-27T06:06:44;94804.97;;;18.32;64.91
69524;BME280;56723;42.694;23.286;2022-08-27T06:09:14;94805.34;;;18.36;65.54
69524;BME280;56723;42.694;23.286;2022-08-27T06:11:41;94800.75;;;18.49;65.08
69524;BME280;56723;42.694;23.286;2022-08-27T06:14:09;94807.91;;;18.60;63.60
69524;BME280;56723;42.694;23.286;2022-08-27T06:16:37;94813.16;;;18.60;63.60
69524;BME280;56723;42.694;23.286;2022-08-27T06:19:05;94813.75;;;18.62;63.92
69524;BME280;56723;42.694;23.286;2022-08-27T06:21:33;94808.41;;;18.69;66.93
69524;BME280;56723;42.694;23.286;2022-08-27T06:24:00;94806.00;;;18.86;63.98
69524;BME280;56723;42.694;23.286;2022-08-27T06:26:27;94813.91;;;18.97;62.91
69524;BME280;56723;42.694;23.286;2022-08-27T06:28:54;94802.16;;;19.00;63.13
69524;BME280;56723;42.694;23.286;2022-08-27T06:31:24;94816.06;;;19.19;62.76
69524;BME280;56723;42.694;23.286;2022-08-27T06:33:53;94816.50;;;19.16;61.03
69524;BME280;56723;42.694;23.286;2022-08-27T06:36:21;94813.00;;;19.22;62.57
69524;BME280;56723;42.694;23.286;2022-08-27T06:38:51;94813.47;;;19.30;60.52
69524;BME280;56723;42.694;23.286;2022-08-27T06:41:20;94814.19;;;19.37;60.07
69524;BME280;56723;42.694;23.286;2022-08-27T06:43:50;94809.28;;;19.41;60.09
69524;BME280;56723;42.694;23.286;2022-08-27T06:46:20;94803.69;;;19.49;59.87
69524;BME280;56723;42.694;23.286;2022-08-27T06:48:57;94810.72;;;19.55;59.17
69524;BME280;56723;42.694;23.286;2022-08-27T06:51:27;94807.31;;;19.66;59.85
69524;BME280;56723;42.694;23.286;2022-08-27T06:53:57;94807.09;;;19.80;58.58
69524;BME280;56723;42.694;23.286;2022-08-27T06:56:25;94808.25;;;19.84;58.45
69524;BME280;56723;42.694;23.286;2022-08-27T06:58:53;94809.84;;;19.85;57.52
69524;BME280;56723;42.694;23.286;2022-08-27T07:01:22;94806.88;;;19.93;58.46
69524;BME280;56723;42.694;23.286;2022-08-27T07:03:49;94802.91;;;20.02;57.91
69524;BME280;56723;42.694;23.286;2022-08-27T07:06:16;94805.88;;;20.17;57.33
69524;BME280;56723;42.694;23.286;2022-08-27T07:08:43;94804.00;;;20.29;56.47
69524;BME280;56723;42.694;23.286;2022-08-27T07:11:19;94798.53;;;20.43;55.80
69524;BME280;56723;42.694;23.286;2022-08-27T07:13:46;94794.06;;;20.55;56.53
69524;BME280;56723;42.694;23.286;2022-08-27T07:16:15;94793.00;;;20.67;54.92
69524;BME280;56723;42.694;23.286;2022-08-27T07:18:43;94795.50;;;20.74;54.09
69524;BME280;56723;42.694;23.286;2022-08-27T07:21:10;94800.06;;;20.79;53.93
69524;BME280;56723;42.694;23.286;2022-08-27T07:23:38;94795.00;;;20.89;53.63
69524;BME280;56723;42.694;23.286;2022-08-27T07:26:06;94790.25;;;21.02;54.20
69524;BME280;56723;42.694;23.286;2022-08-27T07:28:33;94779.38;;;20.99;53.41
69524;BME280;56723;42.694;23.286;2022-08-27T07:31:00;94805.00;;;21.15;53.25
69524;BME280;56723;42.694;23.286;2022-08-27T07:33:27;94800.50;;;21.27;53.16
69524;BME280;56723;42.694;23.286;2022-08-27T07:35:54;94808.09;;;21.40;53.01
69524;BME280;56723;42.694;23.286;2022-08-27T07:38:21;94806.19;;;21.53;52.23
69524;BME280;56723;42.694;23.286;2022-08-27T07:40:48;94804.78;;;21.62;51.66
69524;BME280;56723;42.694;23.286;2022-08-27T07:43:15;94801.25;;;21.73;51.79
69524;BME280;56723;42.694;23.286;2022-08-27T07:46:00;94810.84;;;21.96;52.03
69524;BME280;56723;42.694;23.286;2022-08-27T07:48:27;94807.28;;;22.19;53.52
69524;BME280;56723;42.694;23.286;2022-08-27T07:50:55;94806.69;;;22.33;49.71
69524;BME280;56723;42.694;23.286;2022-08-27T07:53:22;94816.41;;;22.50;49.62
69524;BME280;56723;42.694;23.286;2022-08-27T07:55:49;94806.31;;;22.63;49.99
69524;BME280;56723;42.694;23.286;2022-08-27T07:58:16;94805.13;;;22.76;48.92
69524;BME280;56723;42.694;23.286;2022-08-27T08:00:44;94811.84;;;22.84;48.65
69524;BME280;56723;42.694;23.286;2022-08-27T08:03:11;94812.47;;;22.91;49.30
69524;BME280;56723;42.694;23.286;2022-08-27T08:05:44;94807.03;;;23.02;48.74
69524;BME280;56723;42.694;23.286;2022-08-27T08:08:11;94812.50;;;23.18;48.24
69524;BME280;56723;42.694;23.286;2022-08-27T08:10:38;94803.13;;;23.32;46.48
69524;BME280;56723;42.694;23.286;2022-08-27T08:13:05;94803.13;;;23.32;45.63
69524;BME280;56723;42.694;23.286;2022-08-27T08:15:32;94801.22;;;23.27;45.64
69524;BME280;56723;42.694;23.286;2022-08-27T08:18:00;94797.63;;;23.38;45.56
69524;BME280;56723;42.694;23.286;2022-08-27T08:20:27;94793.88;;;23.56;47.01
69524;BME280;56723;42.694;23.286;2022-08-27T08:23:14;94797.47;;;23.77;45.68
69524;BME280;56723;42.694;23.286;2022-08-27T08:25:41;94796.84;;;23.97;45.78
69524;BME280;56723;42.694;23.286;2022-08-27T08:28:08;94790.34;;;24.14;43.74
69524;BME280;56723;42.694;23.286;2022-08-27T08:30:37;94796.84;;;24.29;43.90
69524;BME280;56723;42.694;23.286;2022-08-27T08:33:04;94784.19;;;24.41;42.54
69524;BME280;56723;42.694;23.286;2022-08-27T08:35:31;94781.59;;;24.51;41.78
69524;BME280;56723;42.694;23.286;2022-08-27T08:38:06;94781.94;;;24.65;43.15
69524;BME280;56723;42.694;23.286;2022-08-27T08:40:34;94784.63;;;24.75;41.55
69524;BME280;56723;42.694;23.286;2022-08-27T08:43:02;94779.63;;;24.89;41.05
69524;BME280;56723;42.694;23.286;2022-08-27T08:45:33;94780.22;;;24.96;41.45
69524;BME280;56723;42.694;23.286;2022-08-27T08:48:04;94780.53;;;25.09;40.84
69524;BME280;56723;42.694;23.286;2022-08-27T08:53:08;94787.25;;;25.52;40.26
69524;BME280;56723;42.694;23.286;2022-08-27T09:00:58;94780.09;;;26.09;38.36
69524;BME280;56723;42.694;23.286;2022-08-27T09:03:27;94780.59;;;26.21;38.37
69524;BME280;56723;42.694;23.286;2022-08-27T09:05:57;94779.56;;;26.32;35.96
69524;BME280;56723;42.694;23.286;2022-08-27T09:08:27;94779.53;;;26.37;34.89
69524;BME280;56723;42.694;23.286;2022-08-27T09:13:40;94773.63;;;26.71;35.37
69524;BME280;56723;42.694;23.286;2022-08-27T09:16:08;94770.91;;;26.86;34.79
69524;BME280;56723;42.694;23.286;2022-08-27T09:18:36;94766.59;;;27.00;33.97
69524;BME280;56723;42.694;23.286;2022-08-27T09:21:05;94777.16;;;27.10;33.37
69524;BME280;56723;42.694;23.286;2022-08-27T09:23:57;94767.84;;;27.18;33.18
69524;BME280;56723;42.694;23.286;2022-08-27T09:26:28;94774.38;;;27.36;32.95
69524;BME280;56723;42.694;23.286;2022-08-27T09:28:56;94764.66;;;27.60;33.12
69524;BME280;56723;42.694;23.286;2022-08-27T09:31:47;94762.94;;;27.79;31.77
69524;BME280;56723;42.694;23.286;2022-08-27T09:34:14;94765.25;;;27.86;32.08
69524;BME280;56723;42.694;23.286;2022-08-27T09:36:48;94758.22;;;28.00;31.98
69524;BME280;56723;42.694;23.286;2022-08-27T09:39:17;94758.75;;;28.31;31.64
69524;BME280;56723;42.694;23.286;2022-08-27T09:41:44;94761.16;;;28.56;31.29
69524;BME280;56723;42.694;23.286;2022-08-27T09:44:14;94756.66;;;28.76;30.83
69524;BME280;56723;42.694;23.286;2022-08-27T09:49:37;94753.44;;;28.55;30.74
69524;BME280;56723;42.694;23.286;2022-08-27T09:52:07;94755.69;;;28.67;30.33
69524;BME280;56723;42.694;23.286;2022-08-27T09:54:41;94755.91;;;28.46;31.09
69524;BME280;56723;42.694;23.286;2022-08-27T09:57:10;94749.69;;;28.80;29.99
69524;BME280;56723;42.694;23.286;2022-08-27T09:59:50;94755.22;;;29.07;29.71
69524;BME280;56723;42.694;23.286;2022-08-27T10:02:19;94752.66;;;29.40;29.30
69524;BME280;56723;42.694;23.286;2022-08-27T10:04:47;94750.59;;;29.69;28.83
69524;BME280;56723;42.694;23.286;2022-08-27T10:15:00;94739.91;;;29.69;26.58
69524;BME280;56723;42.694;23.286;2022-08-27T10:25:25;94740.31;;;30.41;27.24
69524;BME280;56723;42.694;23.286;2022-08-27T10:35:50;94742.13;;;30.59;26.07
69524;BME280;56723;42.694;23.286;2022-08-27T10:38:29;94737.16;;;30.67;25.71
69524;BME280;56723;42.694;23.286;2022-08-27T10:41:05;94732.22;;;30.74;26.00
69524;BME280;56723;42.694;23.286;2022-08-27T10:46:42;94739.94;;;30.61;24.22
69524;BME280;56723;42.694;23.286;2022-08-27T10:54:20;94744.06;;;30.81;24.54
69524;BME280;56723;42.694;23.286;2022-08-27T11:04:54;94738.25;;;31.43;23.92
69524;BME280;56723;42.694;23.286;2022-08-27T11:07:24;94737.16;;;31.44;23.58
69524;BME280;56723;42.694;23.286;2022-08-27T11:09:54;94730.56;;;31.27;23.17
69524;BME280;56723;42.694;23.286;2022-08-27T11:12:35;94725.84;;;31.11;22.74
69524;BME280;56723;42.694;23.286;2022-08-27T11:17:39;94722.28;;;30.88;23.34
69524;BME280;56723;42.694;23.286;2022-08-27T11:20:15;94716.72;;;30.84;22.61
69524;BME280;56723;42.694;23.286;2022-08-27T11:22:52;94723.47;;;30.82;22.16
69524;BME280;56723;42.694;23.286;2022-08-27T11:25:42;94718.31;;;30.85;21.84
69524;BME280;56723;42.694;23.286;2022-08-27T11:28:12;94709.69;;;30.88;21.65
69524;BME280;56723;42.694;23.286;2022-08-27T11:43:40;94697.88;;;31.61;22.61
69524;BME280;56723;42.694;23.286;2022-08-27T11:46:08;94693.72;;;31.69;22.75
69524;BME280;56723;42.694;23.286;2022-08-27T11:48:42;94693.03;;;31.86;22.80
69524;BME280;56723;42.694;23.286;2022-08-27T11:51:10;94688.81;;;31.93;22.68
69524;BME280;56723;42.694;23.286;2022-08-27T11:53:53;94701.28;;;31.98;21.86
69524;BME280;56723;42.694;23.286;2022-08-27T11:56:33;94683.81;;;31.56;22.03
69524;BME280;56723;42.694;23.286;2022-08-27T12:01:35;94690.00;;;31.79;22.05
69524;BME280;56723;42.694;23.286;2022-08-27T12:04:03;94681.06;;;31.92;21.91
69524;BME280;56723;42.694;23.286;2022-08-27T12:06:42;94678.59;;;31.73;22.12
69524;BME280;56723;42.694;23.286;2022-08-27T12:09:13;94677.94;;;31.90;22.78
69524;BME280;56723;42.694;23.286;2022-08-27T12:29:51;94659.19;;;31.67;21.95
69524;BME280;56723;42.694;23.286;2022-08-27T12:40:12;94663.25;;;31.20;22.28
69524;BME280;56723;42.694;23.286;2022-08-27T12:42:46;94648.78;;;31.44;22.07
69524;BME280;56723;42.694;23.286;2022-08-27T12:45:23;94653.25;;;31.71;22.14
69524;BME280;56723;42.694;23.286;2022-08-27T12:47:51;94649.25;;;31.90;22.69
69524;BME280;56723;42.694;23.286;2022-08-27T12:50:20;94651.59;;;31.92;21.58
69524;BME280;56723;42.694;23.286;2022-08-27T12:58:08;94642.56;;;32.19;20.99
69524;BME280;56723;42.694;23.286;2022-08-27T13:03:31;94642.03;;;31.99;21.28
69524;BME280;56723;42.694;23.286;2022-08-27T13:06:00;94645.72;;;31.59;21.74
69524;BME280;56723;42.694;23.286;2022-08-27T13:10:54;94645.78;;;32.21;21.79
69524;BME280;56723;42.694;23.286;2022-08-27T13:13:22;94642.97;;;32.26;22.05
69524;BME280;56723;42.694;23.286;2022-08-27T13:15:53;94638.31;;;32.57;21.54
69524;BME280;56723;42.694;23.286;2022-08-27T13:18:21;94633.31;;;32.82;21.36
69524;BME280;56723;42.694;23.286;2022-08-27T13:20:49;94637.75;;;32.95;20.64
69524;BME280;56723;42.694;23.286;2022-08-27T13:23:20;94638.03;;;32.85;21.00
69524;BME280;56723;42.694;23.286;2022-08-27T13:28:20;94629.56;;;32.26;21.50
69524;BME280;56723;42.694;23.286;2022-08-27T13:30:48;94626.03;;;32.65;21.58
69524;BME280;56723;42.694;23.286;2022-08-27T13:33:23;94630.41;;;32.69;20.38
69524;BME280;56723;42.694;23.286;2022-08-27T13:35:50;94627.97;;;32.82;21.05
69524;BME280;56723;42.694;23.286;2022-08-27T13:38:18;94629.84;;;32.90;21.01
69524;BME280;56723;42.694;23.286;2022-08-27T13:41:29;94627.78;;;32.78;21.05
69524;BME280;56723;42.694;23.286;2022-08-27T13:43:43;94627.16;;;32.81;21.20
69524;BME280;56723;42.694;23.286;2022-08-27T13:48:40;94617.69;;;33.10;20.71
69524;BME280;56723;42.694;23.286;2022-08-27T13:51:08;94616.75;;;32.88;19.90
69524;BME280;56723;42.694;23.286;2022-08-27T13:53:35;94616.59;;;33.19;20.26
69524;BME280;56723;42.694;23.286;2022-08-27T13:56:23;94618.03;;;33.25;20.23
69524;BME280;56723;42.694;23.286;2022-08-27T13:58:50;94621.34;;;33.40;20.42
69524;BME280;56723;42.694;23.286;2022-08-27T14:01:25;94619.75;;;33.39;20.14
69524;BME280;56723;42.694;23.286;2022-08-27T14:04:03;94624.19;;;33.26;19.73
69524;BME280;56723;42.694;23.286;2022-08-27T14:06:33;94625.75;;;33.18;20.35
69524;BME280;56723;42.694;23.286;2022-08-27T14:09:39;94628.59;;;32.96;20.45
69524;BME280;56723;42.694;23.286;2022-08-27T14:11:59;94628.69;;;32.65;20.19
69524;BME280;56723;42.694;23.286;2022-08-27T14:14:26;94617.94;;;32.56;20.26
69524;BME280;56723;42.694;23.286;2022-08-27T14:16:58;94623.16;;;32.61;20.52
69524;BME280;56723;42.694;23.286;2022-08-27T14:21:52;94621.09;;;32.67;20.03
69524;BME280;56723;42.694;23.286;2022-08-27T14:24:19;94620.97;;;32.63;21.05
69524;BME280;56723;42.694;23.286;2022-08-27T14:26:50;94628.41;;;32.75;20.42
69524;BME280;56723;42.694;23.286;2022-08-27T14:29:17;94635.53;;;32.80;20.50
69524;BME280;56723;42.694;23.286;2022-08-27T14:31:44;94639.19;;;33.01;20.42
69524;BME280;56723;42.694;23.286;2022-08-27T14:34:11;94632.03;;;33.22;20.72
69524;BME280;56723;42.694;23.286;2022-08-27T14:36:39;94637.28;;;33.27;20.78
69524;BME280;56723;42.694;23.286;2022-08-27T14:39:07;94638.72;;;33.33;20.42
69524;BME280;56723;42.694;23.286;2022-08-27T14:41:34;94637.13;;;33.41;19.87
69524;BME280;56723;42.694;23.286;2022-08-27T14:44:04;94638.22;;;33.40;19.74
69524;BME280;56723;42.694;23.286;2022-08-27T14:46:32;94637.41;;;33.22;20.42
69524;BME280;56723;42.694;23.286;2022-08-27T14:49:09;94641.06;;;33.18;19.45
69524;BME280;56723;42.694;23.286;2022-08-27T14:51:37;94639.97;;;33.27;20.09
69524;BME280;56723;42.694;23.286;2022-08-27T14:54:06;94641.06;;;33.52;19.83
69524;BME280;56723;42.694;23.286;2022-08-27T14:56:32;94629.97;;;33.71;19.80
69524;BME280;56723;42.694;23.286;2022-08-27T14:58:59;94631.06;;;33.87;20.30
69524;BME280;56723;42.694;23.286;2022-08-27T15:01:26;94630.25;;;33.87;19.85
69524;BME280;56723;42.694;23.286;2022-08-27T15:03:54;94631.78;;;34.05;19.44